La Harpe, Illinois
Current Conditions -  °F | °C
As of 11:53 PM on Monday 26 Jan 2015 (Local Time) from KBRL Reporting Station
Overcast Overcast  
Wind Chill: 32°   Ceiling: 3700
Heat Index: 39°   Visibility: 10mi
Dew Point: 35°   Wind: 12mph
Humidity: 86%   Direction: 330°NNW
Pressure: 29.92"   Gusts: NA
Location:  40.58°N, 90.97°W
Report Text: KBRL 270553Z AUTO 33010KT 10SM BKN037 OVC046 04/02 A2992 RMK AO2 SLP138 T00390017 10050 20006 400501061 53014
Loading
Personal Weather Stations






























Interactive Weather Map New forecast layout! Learn more

10-Day Weather Forecast

Advertisements
Track Severe Weather on mobile